sensor_id;sensor_type;location;lat;lon;timestamp;P1;durP1;ratioP1;P2;durP2;ratioP2
51578;SDS011;47998;53.242;6.386;2024-02-26T00:02:24;35.70;;;20.08;;
51578;SDS011;47998;53.242;6.386;2024-02-26T00:04:50;37.03;;;19.90;;
51578;SDS011;47998;53.242;6.386;2024-02-26T00:07:16;37.13;;;19.55;;
51578;SDS011;47998;53.242;6.386;2024-02-26T00:09:42;36.60;;;19.85;;
51578;SDS011;47998;53.242;6.386;2024-02-26T00:12:07;39.20;;;20.17;;
51578;SDS011;47998;53.242;6.386;2024-02-26T00:14:33;36.42;;;18.45;;
51578;SDS011;47998;53.242;6.386;2024-02-26T00:16:59;34.45;;;19.48;;
51578;SDS011;47998;53.242;6.386;2024-02-26T00:19:25;34.85;;;18.23;;
51578;SDS011;47998;53.242;6.386;2024-02-26T00:21:51;33.45;;;18.45;;
51578;SDS011;47998;53.242;6.386;2024-02-26T00:24:18;35.60;;;19.33;;
51578;SDS011;47998;53.242;6.386;2024-02-26T00:26:44;37.58;;;18.58;;
51578;SDS011;47998;53.242;6.386;2024-02-26T00:29:10;32.13;;;17.20;;
51578;SDS011;47998;53.242;6.386;2024-02-26T00:31:36;33.25;;;17.73;;
51578;SDS011;47998;53.242;6.386;2024-02-26T00:34:03;39.20;;;18.70;;
51578;SDS011;47998;53.242;6.386;2024-02-26T00:36:30;32.05;;;17.35;;
51578;SDS011;47998;53.242;6.386;2024-02-26T00:38:56;29.98;;;17.35;;
51578;SDS011;47998;53.242;6.386;2024-02-26T00:41:22;30.60;;;16.65;;
51578;SDS011;47998;53.242;6.386;2024-02-26T00:43:48;34.08;;;17.95;;
51578;SDS011;47998;53.242;6.386;2024-02-26T00:46:14;32.20;;;17.40;;
51578;SDS011;47998;53.242;6.386;2024-02-26T00:48:39;29.48;;;16.38;;
51578;SDS011;47998;53.242;6.386;2024-02-26T00:51:05;34.25;;;17.13;;
51578;SDS011;47998;53.242;6.386;2024-02-26T00:53:31;32.50;;;17.05;;
51578;SDS011;47998;53.242;6.386;2024-02-26T00:55:57;27.50;;;15.25;;
51578;SDS011;47998;53.242;6.386;2024-02-26T00:58:26;31.02;;;16.10;;
51578;SDS011;47998;53.242;6.386;2024-02-26T01:00:52;25.65;;;15.45;;
51578;SDS011;47998;53.242;6.386;2024-02-26T01:03:18;29.50;;;15.95;;
51578;SDS011;47998;53.242;6.386;2024-02-26T01:05:44;22.58;;;14.63;;
51578;SDS011;47998;53.242;6.386;2024-02-26T01:08:10;25.80;;;14.45;;
51578;SDS011;47998;53.242;6.386;2024-02-26T01:10:36;21.23;;;13.75;;
51578;SDS011;47998;53.242;6.386;2024-02-26T01:13:01;21.85;;;13.00;;
51578;SDS011;47998;53.242;6.386;2024-02-26T01:15:27;19.75;;;12.27;;
51578;SDS011;47998;53.242;6.386;2024-02-26T01:17:53;19.08;;;11.05;;
51578;SDS011;47998;53.242;6.386;2024-02-26T01:20:19;17.83;;;11.43;;
51578;SDS011;47998;53.242;6.386;2024-02-26T01:22:45;15.52;;;10.15;;
51578;SDS011;47998;53.242;6.386;2024-02-26T01:25:11;16.50;;;11.00;;
51578;SDS011;47998;53.242;6.386;2024-02-26T01:27:37;11.82;;;8.20;;
51578;SDS011;47998;53.242;6.386;2024-02-26T01:30:03;14.77;;;9.85;;
51578;SDS011;47998;53.242;6.386;2024-02-26T01:32:30;12.88;;;8.02;;
51578;SDS011;47998;53.242;6.386;2024-02-26T01:34:56;15.20;;;10.27;;
51578;SDS011;47998;53.242;6.386;2024-02-26T01:37:22;25.77;;;11.25;;
51578;SDS011;47998;53.242;6.386;2024-02-26T01:39:47;13.82;;;10.15;;
51578;SDS011;47998;53.242;6.386;2024-02-26T01:42:13;13.27;;;10.40;;
51578;SDS011;47998;53.242;6.386;2024-02-26T01:44:39;13.95;;;10.07;;
51578;SDS011;47998;53.242;6.386;2024-02-26T01:47:09;15.50;;;10.20;;
51578;SDS011;47998;53.242;6.386;2024-02-26T01:49:37;13.73;;;9.73;;
51578;SDS011;47998;53.242;6.386;2024-02-26T01:52:04;15.65;;;11.05;;
51578;SDS011;47998;53.242;6.386;2024-02-26T01:54:31;17.75;;;11.50;;
51578;SDS011;47998;53.242;6.386;2024-02-26T01:57:00;12.02;;;8.93;;
51578;SDS011;47998;53.242;6.386;2024-02-26T01:59:27;14.10;;;9.27;;
51578;SDS011;47998;53.242;6.386;2024-02-26T02:01:54;14.80;;;9.27;;
51578;SDS011;47998;53.242;6.386;2024-02-26T02:04:22;13.85;;;9.25;;
51578;SDS011;47998;53.242;6.386;2024-02-26T02:06:49;13.32;;;9.40;;
51578;SDS011;47998;53.242;6.386;2024-02-26T02:09:17;10.85;;;8.32;;
51578;SDS011;47998;53.242;6.386;2024-02-26T02:11:43;12.35;;;8.55;;
51578;SDS011;47998;53.242;6.386;2024-02-26T02:14:10;11.35;;;8.38;;
51578;SDS011;47998;53.242;6.386;2024-02-26T02:16:35;11.10;;;7.80;;
51578;SDS011;47998;53.242;6.386;2024-02-26T02:19:01;17.75;;;9.75;;
51578;SDS011;47998;53.242;6.386;2024-02-26T02:21:27;10.70;;;7.57;;
51578;SDS011;47998;53.242;6.386;2024-02-26T02:23:53;14.98;;;7.30;;
51578;SDS011;47998;53.242;6.386;2024-02-26T02:26:18;14.25;;;7.35;;
51578;SDS011;47998;53.242;6.386;2024-02-26T02:28:45;9.88;;;6.57;;
51578;SDS011;47998;53.242;6.386;2024-02-26T02:31:12;10.02;;;6.93;;
51578;SDS011;47998;53.242;6.386;2024-02-26T02:33:38;11.95;;;7.93;;
51578;SDS011;47998;53.242;6.386;2024-02-26T02:36:04;10.45;;;7.05;;
51578;SDS011;47998;53.242;6.386;2024-02-26T02:38:34;9.80;;;7.53;;
51578;SDS011;47998;53.242;6.386;2024-02-26T02:40:59;9.75;;;6.28;;
51578;SDS011;47998;53.242;6.386;2024-02-26T02:43:25;8.90;;;7.10;;
51578;SDS011;47998;53.242;6.386;2024-02-26T02:45:51;11.52;;;8.15;;
51578;SDS011;47998;53.242;6.386;2024-02-26T02:48:17;9.40;;;7.13;;
51578;SDS011;47998;53.242;6.386;2024-02-26T02:50:42;9.70;;;7.03;;
51578;SDS011;47998;53.242;6.386;2024-02-26T02:53:08;10.40;;;6.47;;
51578;SDS011;47998;53.242;6.386;2024-02-26T02:55:35;7.57;;;5.72;;
51578;SDS011;47998;53.242;6.386;2024-02-26T02:58:00;10.00;;;6.07;;
51578;SDS011;47998;53.242;6.386;2024-02-26T03:00:26;9.05;;;6.07;;
51578;SDS011;47998;53.242;6.386;2024-02-26T03:02:52;9.13;;;5.90;;
51578;SDS011;47998;53.242;6.386;2024-02-26T03:05:18;10.83;;;5.70;;
51578;SDS011;47998;53.242;6.386;2024-02-26T03:07:44;11.13;;;6.45;;
51578;SDS011;47998;53.242;6.386;2024-02-26T03:10:09;9.18;;;6.15;;
51578;SDS011;47998;53.242;6.386;2024-02-26T03:12:35;7.43;;;5.32;;
51578;SDS011;47998;53.242;6.386;2024-02-26T03:15:01;11.35;;;7.38;;
51578;SDS011;47998;53.242;6.386;2024-02-26T03:17:30;12.30;;;6.50;;
51578;SDS011;47998;53.242;6.386;2024-02-26T03:19:55;8.53;;;6.27;;
51578;SDS011;47998;53.242;6.386;2024-02-26T03:22:21;7.78;;;5.57;;
51578;SDS011;47998;53.242;6.386;2024-02-26T03:24:47;11.38;;;5.60;;
51578;SDS011;47998;53.242;6.386;2024-02-26T03:27:13;21.45;;;6.75;;
51578;SDS011;47998;53.242;6.386;2024-02-26T03:29:39;8.45;;;6.63;;
51578;SDS011;47998;53.242;6.386;2024-02-26T03:32:05;9.55;;;5.90;;
51578;SDS011;47998;53.242;6.386;2024-02-26T03:34:32;8.77;;;5.90;;
51578;SDS011;47998;53.242;6.386;2024-02-26T03:37:04;8.77;;;6.17;;
51578;SDS011;47998;53.242;6.386;2024-02-26T03:39:29;7.70;;;6.50;;
51578;SDS011;47998;53.242;6.386;2024-02-26T03:41:55;9.75;;;5.82;;
51578;SDS011;47998;53.242;6.386;2024-02-26T03:44:21;7.93;;;5.97;;
51578;SDS011;47998;53.242;6.386;2024-02-26T03:46:46;9.05;;;5.60;;
51578;SDS011;47998;53.242;6.386;2024-02-26T03:49:12;10.17;;;5.77;;
51578;SDS011;47998;53.242;6.386;2024-02-26T03:51:38;9.80;;;4.78;;
51578;SDS011;47998;53.242;6.386;2024-02-26T03:54:04;13.07;;;6.90;;
51578;SDS011;47998;53.242;6.386;2024-02-26T03:56:30;8.93;;;5.80;;
51578;SDS011;47998;53.242;6.386;2024-02-26T03:58:55;9.25;;;6.00;;
51578;SDS011;47998;53.242;6.386;2024-02-26T04:01:21;9.10;;;6.05;;
51578;SDS011;47998;53.242;6.386;2024-02-26T04:03:47;12.65;;;5.97;;
51578;SDS011;47998;53.242;6.386;2024-02-26T04:06:13;9.35;;;5.70;;
51578;SDS011;47998;53.242;6.386;2024-02-26T04:08:39;11.13;;;6.50;;
51578;SDS011;47998;53.242;6.386;2024-02-26T04:11:06;9.52;;;5.95;;
51578;SDS011;47998;53.242;6.386;2024-02-26T04:13:36;10.18;;;6.47;;
51578;SDS011;47998;53.242;6.386;2024-02-26T04:16:04;11.02;;;6.35;;
51578;SDS011;47998;53.242;6.386;2024-02-26T04:18:31;12.30;;;7.40;;
51578;SDS011;47998;53.242;6.386;2024-02-26T04:20:57;9.60;;;6.88;;
51578;SDS011;47998;53.242;6.386;2024-02-26T04:23:23;9.65;;;6.63;;
51578;SDS011;47998;53.242;6.386;2024-02-26T04:25:52;7.88;;;5.78;;
51578;SDS011;47998;53.242;6.386;2024-02-26T04:28:18;11.95;;;6.43;;
51578;SDS011;47998;53.242;6.386;2024-02-26T04:30:46;11.43;;;5.72;;
51578;SDS011;47998;53.242;6.386;2024-02-26T04:33:13;11.73;;;6.77;;
51578;SDS011;47998;53.242;6.386;2024-02-26T04:35:39;10.45;;;6.05;;
51578;SDS011;47998;53.242;6.386;2024-02-26T04:38:04;7.00;;;5.30;;
51578;SDS011;47998;53.242;6.386;2024-02-26T04:40:30;7.63;;;5.90;;
51578;SDS011;47998;53.242;6.386;2024-02-26T04:42:56;10.82;;;5.93;;
51578;SDS011;47998;53.242;6.386;2024-02-26T04:45:22;11.27;;;5.85;;
51578;SDS011;47998;53.242;6.386;2024-02-26T04:47:48;7.80;;;4.90;;
51578;SDS011;47998;53.242;6.386;2024-02-26T04:50:14;8.18;;;6.03;;
51578;SDS011;47998;53.242;6.386;2024-02-26T04:52:39;8.02;;;5.70;;
51578;SDS011;47998;53.242;6.386;2024-02-26T04:55:06;6.55;;;4.40;;
51578;SDS011;47998;53.242;6.386;2024-02-26T04:57:32;9.18;;;4.70;;
51578;SDS011;47998;53.242;6.386;2024-02-26T04:59:57;11.02;;;5.63;;
51578;SDS011;47998;53.242;6.386;2024-02-26T05:02:24;6.93;;;5.40;;
51578;SDS011;47998;53.242;6.386;2024-02-26T05:04:49;9.85;;;5.97;;
51578;SDS011;47998;53.242;6.386;2024-02-26T05:07:15;8.32;;;5.45;;
51578;SDS011;47998;53.242;6.386;2024-02-26T05:09:42;8.38;;;5.25;;
51578;SDS011;47998;53.242;6.386;2024-02-26T05:12:09;6.97;;;5.15;;
51578;SDS011;47998;53.242;6.386;2024-02-26T05:14:35;9.98;;;4.65;;
51578;SDS011;47998;53.242;6.386;2024-02-26T05:17:00;6.07;;;5.15;;
51578;SDS011;47998;53.242;6.386;2024-02-26T05:19:26;7.43;;;4.82;;
51578;SDS011;47998;53.242;6.386;2024-02-26T05:21:52;8.02;;;5.07;;
51578;SDS011;47998;53.242;6.386;2024-02-26T05:24:18;7.82;;;4.80;;
51578;SDS011;47998;53.242;6.386;2024-02-26T05:26:47;6.40;;;4.57;;
51578;SDS011;47998;53.242;6.386;2024-02-26T05:29:13;5.85;;;4.72;;
51578;SDS011;47998;53.242;6.386;2024-02-26T05:31:39;3.42;;;3.03;;
51578;SDS011;47998;53.242;6.386;2024-02-26T05:34:07;4.22;;;3.20;;
51578;SDS011;47998;53.242;6.386;2024-02-26T05:36:32;4.32;;;3.22;;
51578;SDS011;47998;53.242;6.386;2024-02-26T05:39:01;4.35;;;3.30;;
51578;SDS011;47998;53.242;6.386;2024-02-26T05:41:28;4.40;;;2.80;;
51578;SDS011;47998;53.242;6.386;2024-02-26T05:43:54;3.95;;;3.33;;
51578;SDS011;47998;53.242;6.386;2024-02-26T05:46:20;4.25;;;2.80;;
51578;SDS011;47998;53.242;6.386;2024-02-26T05:48:48;4.40;;;2.78;;
51578;SDS011;47998;53.242;6.386;2024-02-26T05:51:15;5.72;;;3.35;;
51578;SDS011;47998;53.242;6.386;2024-02-26T05:53:41;4.25;;;2.72;;
51578;SDS011;47998;53.242;6.386;2024-02-26T05:56:07;3.58;;;2.15;;
51578;SDS011;47998;53.242;6.386;2024-02-26T05:58:32;3.00;;;2.70;;
51578;SDS011;47998;53.242;6.386;2024-02-26T06:00:58;4.75;;;2.58;;
51578;SDS011;47998;53.242;6.386;2024-02-26T06:03:25;2.92;;;2.63;;
51578;SDS011;47998;53.242;6.386;2024-02-26T06:05:51;5.15;;;3.03;;
51578;SDS011;47998;53.242;6.386;2024-02-26T06:08:17;3.20;;;2.72;;
51578;SDS011;47998;53.242;6.386;2024-02-26T06:10:42;4.55;;;2.65;;
51578;SDS011;47998;53.242;6.386;2024-02-26T06:13:08;3.08;;;2.38;;
51578;SDS011;47998;53.242;6.386;2024-02-26T06:15:34;3.13;;;2.47;;
51578;SDS011;47998;53.242;6.386;2024-02-26T06:17:59;3.65;;;2.85;;
51578;SDS011;47998;53.242;6.386;2024-02-26T06:20:25;6.72;;;2.63;;
51578;SDS011;47998;53.242;6.386;2024-02-26T06:22:51;3.75;;;2.70;;
51578;SDS011;47998;53.242;6.386;2024-02-26T06:25:17;3.72;;;3.10;;
51578;SDS011;47998;53.242;6.386;2024-02-26T06:27:42;3.88;;;2.55;;
51578;SDS011;47998;53.242;6.386;2024-02-26T06:30:08;5.10;;;3.53;;
51578;SDS011;47998;53.242;6.386;2024-02-26T06:32:36;2.60;;;2.33;;
51578;SDS011;47998;53.242;6.386;2024-02-26T06:35:05;3.08;;;2.78;;
51578;SDS011;47998;53.242;6.386;2024-02-26T06:37:36;3.47;;;2.60;;
51578;SDS011;47998;53.242;6.386;2024-02-26T06:40:02;4.38;;;2.65;;
51578;SDS011;47998;53.242;6.386;2024-02-26T06:42:31;6.60;;;3.17;;
51578;SDS011;47998;53.242;6.386;2024-02-26T06:44:57;4.13;;;3.53;;
51578;SDS011;47998;53.242;6.386;2024-02-26T06:47:23;6.18;;;3.10;;
51578;SDS011;47998;53.242;6.386;2024-02-26T06:49:49;4.57;;;3.10;;
51578;SDS011;47998;53.242;6.386;2024-02-26T06:52:14;5.07;;;3.22;;
51578;SDS011;47998;53.242;6.386;2024-02-26T06:54:40;5.40;;;2.70;;
51578;SDS011;47998;53.242;6.386;2024-02-26T06:57:06;3.63;;;2.40;;
51578;SDS011;47998;53.242;6.386;2024-02-26T06:59:32;6.28;;;2.58;;
51578;SDS011;47998;53.242;6.386;2024-02-26T07:01:58;3.63;;;2.15;;
51578;SDS011;47998;53.242;6.386;2024-02-26T07:04:24;5.30;;;2.30;;
51578;SDS011;47998;53.242;6.386;2024-02-26T07:06:49;3.08;;;2.20;;
51578;SDS011;47998;53.242;6.386;2024-02-26T07:09:15;7.50;;;2.20;;
51578;SDS011;47998;53.242;6.386;2024-02-26T07:11:41;3.63;;;1.70;;
51578;SDS011;47998;53.242;6.386;2024-02-26T07:14:11;2.67;;;1.40;;
51578;SDS011;47998;53.242;6.386;2024-02-26T07:16:37;2.67;;;1.92;;
51578;SDS011;47998;53.242;6.386;2024-02-26T07:19:03;5.07;;;1.83;;
51578;SDS011;47998;53.242;6.386;2024-02-26T07:21:29;3.78;;;2.10;;
51578;SDS011;47998;53.242;6.386;2024-02-26T07:23:55;5.53;;;1.92;;
51578;SDS011;47998;53.242;6.386;2024-02-26T07:26:21;2.25;;;1.40;;
51578;SDS011;47998;53.242;6.386;2024-02-26T07:28:49;5.32;;;2.08;;
51578;SDS011;47998;53.242;6.386;2024-02-26T07:31:15;2.20;;;1.77;;
51578;SDS011;47998;53.242;6.386;2024-02-26T07:33:42;2.65;;;2.08;;
51578;SDS011;47998;53.242;6.386;2024-02-26T07:36:08;4.47;;;1.95;;
51578;SDS011;47998;53.242;6.386;2024-02-26T07:38:33;4.05;;;1.95;;
51578;SDS011;47998;53.242;6.386;2024-02-26T07:41:01;3.78;;;2.10;;
51578;SDS011;47998;53.242;6.386;2024-02-26T07:43:27;3.85;;;2.70;;
51578;SDS011;47998;53.242;6.386;2024-02-26T07:45:53;5.35;;;2.83;;
51578;SDS011;47998;53.242;6.386;2024-02-26T07:48:19;2.88;;;2.08;;
51578;SDS011;47998;53.242;6.386;2024-02-26T07:50:45;3.13;;;1.60;;
51578;SDS011;47998;53.242;6.386;2024-02-26T07:53:11;4.40;;;2.60;;
51578;SDS011;47998;53.242;6.386;2024-02-26T07:55:36;7.53;;;2.30;;
51578;SDS011;47998;53.242;6.386;2024-02-26T07:58:02;3.78;;;1.60;;
51578;SDS011;47998;53.242;6.386;2024-02-26T08:00:28;3.75;;;2.10;;
51578;SDS011;47998;53.242;6.386;2024-02-26T08:02:54;4.10;;;1.73;;
51578;SDS011;47998;53.242;6.386;2024-02-26T08:05:19;4.75;;;2.65;;
51578;SDS011;47998;53.242;6.386;2024-02-26T08:07:45;3.30;;;1.75;;
51578;SDS011;47998;53.242;6.386;2024-02-26T08:10:11;2.38;;;1.58;;
51578;SDS011;47998;53.242;6.386;2024-02-26T08:12:37;1.80;;;1.48;;
51578;SDS011;47998;53.242;6.386;2024-02-26T08:15:02;3.70;;;1.60;;
51578;SDS011;47998;53.242;6.386;2024-02-26T08:17:28;3.63;;;1.67;;
51578;SDS011;47998;53.242;6.386;2024-02-26T08:19:54;2.72;;;1.58;;
51578;SDS011;47998;53.242;6.386;2024-02-26T08:22:20;2.15;;;1.25;;
51578;SDS011;47998;53.242;6.386;2024-02-26T08:24:45;3.70;;;1.50;;
51578;SDS011;47998;53.242;6.386;2024-02-26T08:27:11;5.15;;;1.40;;
51578;SDS011;47998;53.242;6.386;2024-02-26T08:29:37;3.15;;;1.63;;
51578;SDS011;47998;53.242;6.386;2024-02-26T08:32:02;5.60;;;1.40;;
51578;SDS011;47998;53.242;6.386;2024-02-26T08:34:28;2.50;;;1.50;;
51578;SDS011;47998;53.242;6.386;2024-02-26T08:36:54;1.58;;;1.30;;
51578;SDS011;47998;53.242;6.386;2024-02-26T08:39:20;4.25;;;1.75;;
51578;SDS011;47998;53.242;6.386;2024-02-26T08:41:45;2.13;;;1.92;;
51578;SDS011;47998;53.242;6.386;2024-02-26T08:44:11;3.55;;;1.55;;
51578;SDS011;47998;53.242;6.386;2024-02-26T08:46:37;2.28;;;1.60;;
51578;SDS011;47998;53.242;6.386;2024-02-26T08:49:03;3.80;;;1.30;;
51578;SDS011;47998;53.242;6.386;2024-02-26T08:51:29;3.67;;;2.00;;
51578;SDS011;47998;53.242;6.386;2024-02-26T08:53:55;3.83;;;2.42;;
51578;SDS011;47998;53.242;6.386;2024-02-26T08:56:21;2.53;;;1.55;;
51578;SDS011;47998;53.242;6.386;2024-02-26T08:58:47;5.65;;;1.92;;
51578;SDS011;47998;53.242;6.386;2024-02-26T09:01:18;4.85;;;1.50;;
51578;SDS011;47998;53.242;6.386;2024-02-26T09:03:45;2.70;;;1.52;;
51578;SDS011;47998;53.242;6.386;2024-02-26T09:06:10;4.22;;;2.13;;
51578;SDS011;47998;53.242;6.386;2024-02-26T09:08:40;2.15;;;1.55;;
51578;SDS011;47998;53.242;6.386;2024-02-26T09:11:06;4.20;;;1.63;;
51578;SDS011;47998;53.242;6.386;2024-02-26T09:13:31;2.03;;;1.40;;
51578;SDS011;47998;53.242;6.386;2024-02-26T09:15:57;4.28;;;2.38;;
51578;SDS011;47998;53.242;6.386;2024-02-26T09:18:24;2.92;;;1.40;;
51578;SDS011;47998;53.242;6.386;2024-02-26T09:20:50;4.30;;;1.88;;
51578;SDS011;47998;53.242;6.386;2024-02-26T09:23:16;7.43;;;1.95;;
51578;SDS011;47998;53.242;6.386;2024-02-26T09:25:41;4.25;;;1.92;;
51578;SDS011;47998;53.242;6.386;2024-02-26T09:28:07;5.32;;;2.10;;
51578;SDS011;47998;53.242;6.386;2024-02-26T09:30:33;3.95;;;1.90;;
51578;SDS011;47998;53.242;6.386;2024-02-26T09:32:59;3.40;;;2.00;;
51578;SDS011;47998;53.242;6.386;2024-02-26T09:35:24;3.33;;;2.05;;
51578;SDS011;47998;53.242;6.386;2024-02-26T09:37:52;2.70;;;1.70;;
51578;SDS011;47998;53.242;6.386;2024-02-26T09:40:18;5.30;;;2.42;;
51578;SDS011;47998;53.242;6.386;2024-02-26T09:42:44;3.20;;;2.10;;
51578;SDS011;47998;53.242;6.386;2024-02-26T09:45:18;4.45;;;2.28;;
51578;SDS011;47998;53.242;6.386;2024-02-26T09:47:45;4.28;;;2.10;;
51578;SDS011;47998;53.242;6.386;2024-02-26T09:50:13;3.85;;;2.00;;
51578;SDS011;47998;53.242;6.386;2024-02-26T09:52:43;5.32;;;2.40;;
51578;SDS011;47998;53.242;6.386;2024-02-26T09:55:09;5.32;;;2.50;;
51578;SDS011;47998;53.242;6.386;2024-02-26T09:57:36;4.50;;;2.53;;
51578;SDS011;47998;53.242;6.386;2024-02-26T10:00:03;3.90;;;2.70;;
51578;SDS011;47998;53.242;6.386;2024-02-26T10:02:33;5.45;;;2.53;;
51578;SDS011;47998;53.242;6.386;2024-02-26T10:05:02;7.68;;;2.63;;
51578;SDS011;47998;53.242;6.386;2024-02-26T10:07:31;5.00;;;1.52;;
51578;SDS011;47998;53.242;6.386;2024-02-26T10:09:59;4.10;;;1.95;;
51578;SDS011;47998;53.242;6.386;2024-02-26T10:12:26;3.90;;;1.58;;
51578;SDS011;47998;53.242;6.386;2024-02-26T10:14:53;3.10;;;1.60;;
51578;SDS011;47998;53.242;6.386;2024-02-26T10:17:19;2.47;;;0.95;;
51578;SDS011;47998;53.242;6.386;2024-02-26T10:19:45;2.03;;;0.80;;
51578;SDS011;47998;53.242;6.386;2024-02-26T10:22:11;4.68;;;1.13;;
51578;SDS011;47998;53.242;6.386;2024-02-26T10:24:37;3.65;;;1.10;;
51578;SDS011;47998;53.242;6.386;2024-02-26T10:27:02;1.95;;;1.10;;
51578;SDS011;47998;53.242;6.386;2024-02-26T10:29:29;2.67;;;1.13;;
51578;SDS011;47998;53.242;6.386;2024-02-26T10:31:56;3.75;;;1.27;;
51578;SDS011;47998;53.242;6.386;2024-02-26T10:34:21;2.92;;;1.38;;
51578;SDS011;47998;53.242;6.386;2024-02-26T10:36:48;2.30;;;1.10;;
51578;SDS011;47998;53.242;6.386;2024-02-26T10:39:14;3.33;;;1.30;;
51578;SDS011;47998;53.242;6.386;2024-02-26T10:41:41;2.00;;;1.25;;
51578;SDS011;47998;53.242;6.386;2024-02-26T10:44:11;2.42;;;0.90;;
51578;SDS011;47998;53.242;6.386;2024-02-26T10:46:38;2.33;;;1.70;;
51578;SDS011;47998;53.242;6.386;2024-02-26T10:49:12;2.55;;;1.63;;
51578;SDS011;47998;53.242;6.386;2024-02-26T10:51:41;2.97;;;1.25;;
51578;SDS011;47998;53.242;6.386;2024-02-26T10:54:09;2.63;;;1.90;;
51578;SDS011;47998;53.242;6.386;2024-02-26T10:56:41;2.50;;;2.05;;
51578;SDS011;47998;53.242;6.386;2024-02-26T10:59:09;4.70;;;2.55;;
51578;SDS011;47998;53.242;6.386;2024-02-26T11:01:38;4.10;;;1.90;;
51578;SDS011;47998;53.242;6.386;2024-02-26T11:04:06;4.60;;;1.75;;
51578;SDS011;47998;53.242;6.386;2024-02-26T11:06:33;5.82;;;2.72;;
51578;SDS011;47998;53.242;6.386;2024-02-26T11:09:01;4.05;;;2.65;;
51578;SDS011;47998;53.242;6.386;2024-02-26T11:11:27;3.08;;;2.47;;
51578;SDS011;47998;53.242;6.386;2024-02-26T11:13:59;3.45;;;2.58;;
51578;SDS011;47998;53.242;6.386;2024-02-26T11:16:28;4.22;;;2.13;;
51578;SDS011;47998;53.242;6.386;2024-02-26T11:18:55;6.93;;;2.70;;
51578;SDS011;47998;53.242;6.386;2024-02-26T11:21:22;4.85;;;2.03;;
51578;SDS011;47998;53.242;6.386;2024-02-26T11:23:53;4.32;;;2.70;;
51578;SDS011;47998;53.242;6.386;2024-02-26T11:26:20;4.60;;;2.92;;
51578;SDS011;47998;53.242;6.386;2024-02-26T11:28:48;6.85;;;2.90;;
51578;SDS011;47998;53.242;6.386;2024-02-26T11:31:15;5.63;;;3.17;;
51578;SDS011;47998;53.242;6.386;2024-02-26T11:33:41;5.20;;;2.55;;
51578;SDS011;47998;53.242;6.386;2024-02-26T11:36:08;6.22;;;3.28;;
51578;SDS011;47998;53.242;6.386;2024-02-26T11:38:35;8.88;;;3.83;;
51578;SDS011;47998;53.242;6.386;2024-02-26T11:41:01;6.20;;;3.63;;
51578;SDS011;47998;53.242;6.386;2024-02-26T11:46:26;4.20;;;3.15;;
51578;SDS011;47998;53.242;6.386;2024-02-26T11:51:54;7.60;;;4.07;;
51578;SDS011;47998;53.242;6.386;2024-02-26T11:57:19;6.00;;;3.30;;
51578;SDS011;47998;53.242;6.386;2024-02-26T12:05:20;6.85;;;3.60;;
51578;SDS011;47998;53.242;6.386;2024-02-26T12:07:49;5.78;;;2.97;;
51578;SDS011;47998;53.242;6.386;2024-02-26T12:10:25;5.63;;;2.90;;
51578;SDS011;47998;53.242;6.386;2024-02-26T12:13:04;5.80;;;2.15;;
51578;SDS011;47998;53.242;6.386;2024-02-26T12:15:38;6.15;;;2.92;;
51578;SDS011;47998;53.242;6.386;2024-02-26T12:20:42;15.05;;;4.82;;
51578;SDS011;47998;53.242;6.386;2024-02-26T12:23:15;5.45;;;3.35;;
51578;SDS011;47998;53.242;6.386;2024-02-26T12:25:43;4.45;;;2.95;;
51578;SDS011;47998;53.242;6.386;2024-02-26T12:28:09;6.22;;;3.65;;
51578;SDS011;47998;53.242;6.386;2024-02-26T12:30:35;5.57;;;3.42;;
51578;SDS011;47998;53.242;6.386;2024-02-26T12:33:01;5.28;;;2.80;;
51578;SDS011;47998;53.242;6.386;2024-02-26T12:35:28;7.20;;;3.60;;
51578;SDS011;47998;53.242;6.386;2024-02-26T12:37:56;7.55;;;4.28;;
51578;SDS011;47998;53.242;6.386;2024-02-26T12:40:23;6.13;;;3.03;;
51578;SDS011;47998;53.242;6.386;2024-02-26T12:42:49;7.82;;;4.00;;
51578;SDS011;47998;53.242;6.386;2024-02-26T12:45:15;7.55;;;3.97;;
51578;SDS011;47998;53.242;6.386;2024-02-26T12:47:44;7.03;;;4.38;;
51578;SDS011;47998;53.242;6.386;2024-02-26T12:50:11;4.25;;;2.72;;
51578;SDS011;47998;53.242;6.386;2024-02-26T12:52:46;8.50;;;2.80;;
51578;SDS011;47998;53.242;6.386;2024-02-26T12:55:16;6.20;;;2.63;;
51578;SDS011;47998;53.242;6.386;2024-02-26T12:57:44;4.22;;;2.80;;
51578;SDS011;47998;53.242;6.386;2024-02-26T13:00:11;5.50;;;2.88;;
51578;SDS011;47998;53.242;6.386;2024-02-26T13:02:39;6.32;;;3.53;;
51578;SDS011;47998;53.242;6.386;2024-02-26T13:05:08;4.68;;;3.00;;
51578;SDS011;47998;53.242;6.386;2024-02-26T13:07:34;4.15;;;2.72;;
51578;SDS011;47998;53.242;6.386;2024-02-26T13:10:06;6.72;;;2.92;;
51578;SDS011;47998;53.242;6.386;2024-02-26T13:12:33;6.45;;;2.97;;
51578;SDS011;47998;53.242;6.386;2024-02-26T13:15:02;9.25;;;3.40;;
51578;SDS011;47998;53.242;6.386;2024-02-26T13:17:31;6.05;;;3.60;;
51578;SDS011;47998;53.242;6.386;2024-02-26T13:19:58;5.03;;;3.15;;
51578;SDS011;47998;53.242;6.386;2024-02-26T13:22:23;4.13;;;3.05;;
51578;SDS011;47998;53.242;6.386;2024-02-26T13:24:56;3.83;;;3.40;;
51578;SDS011;47998;53.242;6.386;2024-02-26T13:27:22;4.25;;;3.20;;
51578;SDS011;47998;53.242;6.386;2024-02-26T13:29:49;4.10;;;2.50;;
51578;SDS011;47998;53.242;6.386;2024-02-26T13:32:27;4.07;;;2.40;;
51578;SDS011;47998;53.242;6.386;2024-02-26T13:35:04;4.35;;;3.00;;
51578;SDS011;47998;53.242;6.386;2024-02-26T13:37:39;6.80;;;2.90;;
51578;SDS011;47998;53.242;6.386;2024-02-26T13:42:32;4.53;;;2.60;;
51578;SDS011;47998;53.242;6.386;2024-02-26T13:44:58;5.43;;;3.05;;
51578;SDS011;47998;53.242;6.386;2024-02-26T13:47:23;6.50;;;4.55;;
51578;SDS011;47998;53.242;6.386;2024-02-26T13:49:49;4.75;;;2.95;;
51578;SDS011;47998;53.242;6.386;2024-02-26T13:52:15;5.82;;;3.20;;
51578;SDS011;47998;53.242;6.386;2024-02-26T13:54:41;4.47;;;2.90;;
51578;SDS011;47998;53.242;6.386;2024-02-26T13:57:07;4.40;;;3.42;;
51578;SDS011;47998;53.242;6.386;2024-02-26T13:59:33;6.97;;;2.90;;
51578;SDS011;47998;53.242;6.386;2024-02-26T14:01:59;5.85;;;3.33;;
51578;SDS011;47998;53.242;6.386;2024-02-26T14:04:25;6.82;;;4.72;;
51578;SDS011;47998;53.242;6.386;2024-02-26T14:06:50;3.85;;;2.97;;
51578;SDS011;47998;53.242;6.386;2024-02-26T14:09:16;8.07;;;3.92;;
51578;SDS011;47998;53.242;6.386;2024-02-26T14:11:46;6.30;;;3.65;;
51578;SDS011;47998;53.242;6.386;2024-02-26T14:14:12;4.15;;;2.90;;
51578;SDS011;47998;53.242;6.386;2024-02-26T14:16:38;6.72;;;3.95;;
51578;SDS011;47998;53.242;6.386;2024-02-26T14:19:04;6.38;;;4.25;;
51578;SDS011;47998;53.242;6.386;2024-02-26T14:21:29;5.47;;;3.65;;
51578;SDS011;47998;53.242;6.386;2024-02-26T14:23:55;5.55;;;3.40;;
51578;SDS011;47998;53.242;6.386;2024-02-26T14:26:22;5.85;;;2.83;;
51578;SDS011;47998;53.242;6.386;2024-02-26T14:28:48;5.35;;;3.72;;
51578;SDS011;47998;53.242;6.386;2024-02-26T14:31:17;6.30;;;4.07;;
51578;SDS011;47998;53.242;6.386;2024-02-26T14:33:43;4.22;;;3.40;;
51578;SDS011;47998;53.242;6.386;2024-02-26T14:36:09;6.28;;;4.00;;
51578;SDS011;47998;53.242;6.386;2024-02-26T14:38:35;6.60;;;4.75;;
51578;SDS011;47998;53.242;6.386;2024-02-26T14:41:01;6.85;;;4.25;;
51578;SDS011;47998;53.242;6.386;2024-02-26T14:43:27;11.70;;;5.43;;
51578;SDS011;47998;53.242;6.386;2024-02-26T14:45:54;6.85;;;4.22;;
51578;SDS011;47998;53.242;6.386;2024-02-26T14:48:20;7.72;;;4.90;;
51578;SDS011;47998;53.242;6.386;2024-02-26T14:50:52;6.18;;;4.40;;
51578;SDS011;47998;53.242;6.386;2024-02-26T14:53:18;7.82;;;4.53;;
51578;SDS011;47998;53.242;6.386;2024-02-26T14:55:44;6.97;;;3.92;;
51578;SDS011;47998;53.242;6.386;2024-02-26T14:58:09;9.10;;;4.50;;
51578;SDS011;47998;53.242;6.386;2024-02-26T15:00:36;6.32;;;3.50;;